Time;durP1;ratioP1;P1;durP2;ratioP2;P2;SDS_P1;SDS_P2;PMS_P1;PMS_P2;Temp;Humidity;BMP_temperature;BMP_pressure;BME280_temperature;BME280_humidity;BME280_pressure;Samples;Min_cycle;Max_cycle;Signal;HPM_P1;HPM_P2
2021/09/03 00:01:00;;;;;;;18.77;14.40;;;13.20;99.90;;;;;;5033060;28;20274;-69
2021/09/03 00:03:25;;;;;;;22.97;14.40;;;13.10;99.90;;;;;;5027272;28;20550;-69
2021/09/03 00:05:51;;;;;;;20.67;15.60;;;13.10;99.90;;;;;;5032980;28;20207;-69
2021/09/03 00:08:16;;;;;;;21.80;15.50;;;13.10;99.90;;;;;;5033203;28;20180;-70
2021/09/03 00:10:41;;;;;;;23.80;15.43;;;13.10;99.90;;;;;;5033210;28;20531;-69
2021/09/03 00:13:07;;;;;;;20.20;15.97;;;13.20;99.90;;;;;;5033126;28;20203;-70
2021/09/03 00:15:32;;;;;;;21.50;14.33;;;13.20;99.90;;;;;;5033090;28;20179;-70
2021/09/03 00:18:02;;;;;;;24.93;17.00;;;13.10;99.90;;;;;;5033059;28;20180;-69
2021/09/03 00:20:27;;;;;;;23.40;16.60;;;13.10;99.90;;;;;;5033201;28;20203;-69
2021/09/03 00:22:53;;;;;;;25.77;18.30;;;13.10;99.90;;;;;;5032416;28;20488;-69
2021/09/03 00:25:18;;;;;;;23.17;15.93;;;13.10;99.90;;;;;;5033044;28;20174;-69
2021/09/03 00:27:44;;;;;;;17.50;14.50;;;13.10;99.90;;;;;;5032928;28;20167;-69
2021/09/03 00:30:10;;;;;;;20.70;15.40;;;13.10;99.90;;;;;;5033044;28;20592;-69
2021/09/03 00:32:36;;;;;;;22.60;15.37;;;13.10;99.90;;;;;;5032957;28;20196;-69
2021/09/03 00:35:01;;;;;;;22.83;17.20;;;13.10;99.90;;;;;;5032712;28;20410;-69
2021/09/03 00:37:26;;;;;;;22.07;15.67;;;13.10;99.90;;;;;;5014866;28;20175;-69
2021/09/03 00:39:52;;;;;;;26.23;17.90;;;13.00;99.90;;;;;;5032659;28;20195;-69
2021/09/03 00:42:17;;;;;;;27.17;17.37;;;13.10;99.90;;;;;;5032445;28;20255;-69
2021/09/03 00:44:43;;;;;;;25.30;16.83;;;13.10;99.90;;;;;;5014276;28;20188;-69
2021/09/03 00:47:09;;;;;;;24.90;17.50;;;13.10;99.90;;;;;;5012668;28;20295;-69
2021/09/03 00:49:34;;;;;;;19.40;14.87;;;13.00;99.90;;;;;;5012727;28;20172;-69
2021/09/03 00:52:03;;;;;;;30.83;16.57;;;12.90;99.90;;;;;;5012767;28;20654;-69
2021/09/03 00:54:28;;;;;;;24.90;16.30;;;13.00;99.90;;;;;;5012511;28;20298;-70
2021/09/03 00:56:54;;;;;;;24.97;15.90;;;12.90;99.90;;;;;;5012545;28;20502;-69
2021/09/03 00:59:20;;;;;;;25.03;16.43;;;13.00;99.90;;;;;;5012546;28;20172;-69
2021/09/03 01:01:45;;;;;;;25.67;15.93;;;12.90;99.90;;;;;;5012376;28;20207;-69
2021/09/03 01:04:11;;;;;;;22.00;16.13;;;13.00;99.90;;;;;;5012408;28;20224;-69
2021/09/03 01:06:36;;;;;;;23.87;16.70;;;12.90;99.90;;;;;;5012666;28;20239;-69
2021/09/03 01:09:02;;;;;;;24.70;16.30;;;12.90;99.90;;;;;;5012376;28;20169;-69
2021/09/03 01:11:27;;;;;;;22.90;16.87;;;12.90;99.90;;;;;;5012364;28;20179;-69
2021/09/03 01:13:53;;;;;;;19.20;15.30;;;13.10;99.90;;;;;;5012271;28;20196;-69
2021/09/03 01:16:18;;;;;;;21.00;16.87;;;13.00;99.90;;;;;;5012213;28;20169;-69
2021/09/03 01:18:44;;;;;;;21.40;15.97;;;13.00;99.90;;;;;;5010797;28;20173;-69
2021/09/03 01:21:09;;;;;;;26.83;17.57;;;13.00;99.90;;;;;;5012228;28;20219;-69
2021/09/03 01:23:35;;;;;;;22.37;15.60;;;13.00;99.90;;;;;;5012108;28;20675;-69
2021/09/03 01:26:02;;;;;;;22.93;16.97;;;13.00;99.90;;;;;;5011992;28;20713;-69
2021/09/03 01:28:28;;;;;;;19.27;15.27;;;13.00;99.90;;;;;;5011894;28;20191;-69
2021/09/03 01:30:53;;;;;;;23.30;15.27;;;13.00;99.90;;;;;;5012019;28;20416;-70
2021/09/03 01:33:19;;;;;;;23.67;16.00;;;13.00;99.90;;;;;;5011713;28;20600;-69
2021/09/03 01:35:44;;;;;;;25.93;16.17;;;12.90;99.90;;;;;;5011495;28;20191;-69
2021/09/03 01:38:10;;;;;;;25.93;14.97;;;12.90;99.90;;;;;;5011860;28;20168;-69
2021/09/03 01:40:35;;;;;;;21.37;16.37;;;12.80;99.90;;;;;;5011805;28;20735;-69
2021/09/03 01:43:01;;;;;;;25.50;16.10;;;12.80;99.90;;;;;;5011958;28;20732;-69
2021/09/03 01:45:26;;;;;;;24.53;15.47;;;12.80;99.90;;;;;;5011915;28;20583;-69
2021/09/03 01:47:51;;;;;;;21.20;14.83;;;12.80;99.90;;;;;;5012146;28;20207;-69
2021/09/03 01:50:17;;;;;;;20.67;15.90;;;12.80;99.90;;;;;;5011982;28;20195;-69
2021/09/03 01:52:42;;;;;;;21.27;14.90;;;12.70;99.90;;;;;;5011797;28;20200;-69
2021/09/03 01:55:08;;;;;;;22.50;15.47;;;12.70;99.90;;;;;;5011601;28;20223;-69
2021/09/03 01:57:34;;;;;;;21.20;16.83;;;12.80;99.90;;;;;;5011746;28;20256;-69
2021/09/03 01:59:59;;;;;;;28.40;16.20;;;12.80;99.90;;;;;;5011774;28;20195;-69
2021/09/03 02:02:25;;;;;;;24.20;16.43;;;12.70;99.90;;;;;;5011598;28;20628;-69
2021/09/03 02:04:50;;;;;;;28.07;18.00;;;12.70;99.90;;;;;;5011704;28;20180;-69
2021/09/03 02:07:15;;;;;;;27.30;15.97;;;12.70;99.90;;;;;;5011581;28;20176;-69
2021/09/03 02:09:41;;;;;;;26.83;16.10;;;12.70;99.90;;;;;;5011633;28;20862;-69
2021/09/03 02:12:07;;;;;;;25.53;16.20;;;12.70;99.90;;;;;;4994304;28;20542;-69
2021/09/03 02:14:32;;;;;;;26.07;15.50;;;12.70;99.90;;;;;;5011820;28;20172;-69
2021/09/03 02:16:57;;;;;;;19.07;15.20;;;12.70;99.90;;;;;;5011533;28;20188;-69
2021/09/03 02:19:23;;;;;;;24.37;18.30;;;12.70;99.90;;;;;;5011664;28;20164;-69
2021/09/03 02:21:48;;;;;;;25.10;16.37;;;12.70;99.90;;;;;;5011736;28;20196;-69
2021/09/03 02:24:14;;;;;;;27.50;16.40;;;12.70;99.90;;;;;;5011568;28;20267;-69
2021/09/03 02:26:39;;;;;;;22.57;15.27;;;12.70;99.90;;;;;;5011643;28;20169;-70
2021/09/03 02:29:05;;;;;;;20.67;14.73;;;12.70;99.90;;;;;;5011699;28;20667;-69
2021/09/03 02:31:30;;;;;;;21.60;16.13;;;12.60;99.90;;;;;;5011500;28;20180;-70
2021/09/03 02:33:56;;;;;;;24.53;17.00;;;12.60;99.90;;;;;;5011715;28;20196;-69
2021/09/03 02:36:21;;;;;;;23.90;17.13;;;12.60;99.90;;;;;;5011381;28;20173;-69
2021/09/03 02:38:47;;;;;;;23.83;16.90;;;12.60;99.90;;;;;;5011561;28;20239;-69
2021/09/03 02:41:12;;;;;;;25.23;17.30;;;12.60;99.90;;;;;;5011393;28;20212;-69
2021/09/03 02:43:38;;;;;;;20.70;16.27;;;12.60;99.90;;;;;;5011445;28;20194;-69
2021/09/03 02:46:03;;;;;;;23.10;15.87;;;12.60;99.90;;;;;;5013109;28;20168;-69
2021/09/03 02:48:29;;;;;;;21.00;16.30;;;12.70;99.90;;;;;;5014963;28;20515;-70
2021/09/03 02:50:55;;;;;;;24.00;16.57;;;12.60;99.90;;;;;;5014994;28;20168;-69
2021/09/03 02:53:21;;;;;;;22.30;15.03;;;12.50;99.90;;;;;;5015268;28;20970;-69
2021/09/03 02:55:46;;;;;;;27.17;15.67;;;12.50;99.90;;;;;;4997594;28;20656;-69
2021/09/03 02:58:11;;;;;;;31.80;17.40;;;12.50;99.90;;;;;;5014891;28;20175;-69
2021/09/03 03:00:37;;;;;;;26.93;16.57;;;12.50;99.90;;;;;;5014792;28;20223;-68
2021/09/03 03:03:03;;;;;;;25.10;15.83;;;12.50;99.90;;;;;;5014898;28;20188;-69
2021/09/03 03:05:28;;;;;;;23.67;16.73;;;12.50;99.90;;;;;;5014702;28;20201;-68
2021/09/03 03:07:54;;;;;;;29.10;17.53;;;12.50;99.90;;;;;;5014451;28;20171;-69
2021/09/03 03:10:19;;;;;;;29.03;17.40;;;12.50;99.90;;;;;;5014629;28;20296;-69
2021/09/03 03:12:47;;;;;;;29.30;18.03;;;12.40;99.90;;;;;;5014379;28;20283;-69
2021/09/03 03:15:12;;;;;;;26.70;17.20;;;12.40;99.90;;;;;;5014482;28;20203;-69
2021/09/03 03:17:38;;;;;;;21.70;16.13;;;12.40;99.90;;;;;;5014308;28;20399;-69
2021/09/03 03:20:04;;;;;;;28.23;16.00;;;12.40;99.90;;;;;;5014328;28;20184;-70
2021/09/03 03:22:30;;;;;;;28.50;16.90;;;12.40;99.90;;;;;;5014102;28;20184;-69
2021/09/03 03:24:55;;;;;;;27.43;17.63;;;12.40;99.90;;;;;;5014524;28;20405;-69
2021/09/03 03:27:21;;;;;;;21.63;15.80;;;12.40;99.90;;;;;;5014342;28;20168;-69
2021/09/03 03:29:46;;;;;;;28.93;16.80;;;12.40;99.90;;;;;;5014226;28;20718;-69
2021/09/03 03:32:12;;;;;;;25.10;16.50;;;12.40;99.90;;;;;;5014560;28;20171;-69
2021/09/03 03:34:37;;;;;;;30.07;16.70;;;12.40;99.90;;;;;;5014243;28;20628;-69
2021/09/03 03:37:03;;;;;;;23.77;16.03;;;12.40;99.90;;;;;;5014125;28;20226;-69
2021/09/03 03:39:28;;;;;;;23.37;16.40;;;12.40;99.90;;;;;;5014093;28;20184;-68
2021/09/03 03:41:54;;;;;;;28.27;16.60;;;12.40;99.90;;;;;;5013925;28;20206;-69
2021/09/03 03:44:20;;;;;;;25.87;18.73;;;12.40;99.90;;;;;;5013910;28;20429;-69
2021/09/03 03:46:46;;;;;;;30.07;16.57;;;12.40;99.90;;;;;;5013705;28;20172;-69
2021/09/03 03:49:11;;;;;;;25.33;16.40;;;12.40;99.90;;;;;;5013926;28;20423;-69
2021/09/03 03:51:37;;;;;;;24.77;16.37;;;12.30;99.90;;;;;;5013840;28;20168;-69
2021/09/03 03:54:02;;;;;;;24.23;15.53;;;12.40;99.90;;;;;;5013692;28;20290;-69
2021/09/03 03:56:28;;;;;;;30.40;18.30;;;12.40;99.90;;;;;;5013375;28;20173;-69
2021/09/03 03:58:53;;;;;;;32.27;19.07;;;12.30;99.90;;;;;;5013030;28;20632;-68
2021/09/03 04:01:19;;;;;;;21.53;15.83;;;12.30;99.90;;;;;;5013408;28;20204;-69
2021/09/03 04:03:44;;;;;;;26.50;16.27;;;12.30;99.90;;;;;;5013537;28;20719;-69
2021/09/03 04:06:10;;;;;;;24.43;16.67;;;12.30;99.90;;;;;;5013663;28;20169;-69
2021/09/03 04:08:35;;;;;;;29.20;17.50;;;12.30;99.90;;;;;;5013484;28;20635;-69
2021/09/03 04:11:01;;;;;;;27.80;18.07;;;12.30;99.90;;;;;;5013602;28;20179;-69
2021/09/03 04:13:26;;;;;;;26.10;16.30;;;12.40;99.90;;;;;;5013483;28;20185;-69
2021/09/03 04:15:52;;;;;;;25.43;16.30;;;12.40;99.90;;;;;;5013554;28;20275;-68
2021/09/03 04:18:17;;;;;;;33.17;17.30;;;12.40;99.90;;;;;;5013294;28;20175;-68
2021/09/03 04:20:43;;;;;;;36.27;19.07;;;12.40;99.90;;;;;;5013611;28;20188;-69
2021/09/03 04:23:09;;;;;;;31.97;19.40;;;12.50;99.90;;;;;;5012968;28;20565;-68
2021/09/03 04:25:35;;;;;;;33.03;19.20;;;12.50;99.90;;;;;;5013281;28;20229;-70
2021/09/03 04:28:01;;;;;;;32.57;18.77;;;12.40;99.90;;;;;;5013257;28;20498;-69
2021/09/03 04:30:27;;;;;;;22.60;17.17;;;12.40;99.90;;;;;;5013153;28;20513;-68
2021/09/03 04:32:52;;;;;;;28.63;17.90;;;12.40;99.90;;;;;;5013026;28;20844;-69
2021/09/03 04:35:18;;;;;;;33.60;18.63;;;12.40;99.90;;;;;;5013250;28;20183;-70
2021/09/03 04:37:47;;;;;;;29.90;17.00;;;12.50;99.90;;;;;;5012957;28;20172;-70
2021/09/03 04:40:14;;;;;;;35.00;18.30;;;12.40;99.90;;;;;;5012865;28;20239;-70
2021/09/03 04:42:40;;;;;;;33.93;20.70;;;12.40;99.90;;;;;;5012863;28;20522;-70
2021/09/03 04:45:07;;;;;;;30.80;19.30;;;12.40;99.90;;;;;;5012783;28;20486;-71
2021/09/03 04:47:33;;;;;;;29.20;19.50;;;12.50;99.90;;;;;;5012704;28;20223;-69
2021/09/03 04:49:58;;;;;;;25.67;18.90;;;12.50;99.90;;;;;;5012723;28;20882;-69
2021/09/03 04:52:24;;;;;;;29.23;19.17;;;12.50;99.90;;;;;;5012665;28;20502;-69
2021/09/03 04:54:49;;;;;;;34.00;20.20;;;12.60;99.90;;;;;;5012506;28;20198;-69
2021/09/03 04:57:15;;;;;;;33.80;21.30;;;12.60;99.90;;;;;;5012530;28;20180;-69
2021/09/03 04:59:40;;;;;;;28.73;19.23;;;12.70;99.90;;;;;;5012528;28;20227;-69
2021/09/03 05:02:06;;;;;;;28.53;18.97;;;12.70;99.90;;;;;;5012728;28;20168;-69
2021/09/03 05:04:31;;;;;;;26.97;19.50;;;12.70;99.90;;;;;;5012517;28;20194;-69
2021/09/03 05:06:57;;;;;;;29.90;20.37;;;12.80;99.90;;;;;;5012390;28;20631;-69
2021/09/03 05:09:22;;;;;;;37.73;19.40;;;12.80;99.90;;;;;;5012474;28;20176;-69
2021/09/03 05:11:48;;;;;;;32.13;20.17;;;12.90;99.90;;;;;;5012629;28;20575;-70
2021/09/03 05:14:13;;;;;;;35.83;19.50;;;12.90;99.90;;;;;;5012375;28;20207;-70
2021/09/03 05:16:39;;;;;;;33.40;20.80;;;13.00;99.90;;;;;;5012328;28;20207;-70
2021/09/03 05:19:04;;;;;;;27.33;18.20;;;13.10;99.90;;;;;;5012079;28;20302;-69
2021/09/03 05:21:30;;;;;;;26.83;17.87;;;13.10;99.90;;;;;;4994685;28;20193;-69
2021/09/03 05:23:55;;;;;;;30.83;21.93;;;13.20;99.90;;;;;;5012343;28;20337;-69
2021/09/03 05:26:21;;;;;;;32.10;19.83;;;13.30;99.90;;;;;;5012341;28;20175;-69
2021/09/03 05:28:46;;;;;;;31.33;18.77;;;13.40;99.90;;;;;;5012150;28;20255;-69
2021/09/03 05:31:12;;;;;;;31.50;19.23;;;13.50;99.90;;;;;;5012198;28;20608;-69
2021/09/03 05:33:37;;;;;;;32.60;19.00;;;13.50;99.90;;;;;;5012265;28;20195;-69
2021/09/03 05:36:03;;;;;;;29.23;19.03;;;13.60;99.90;;;;;;5012112;28;20272;-70
2021/09/03 05:38:28;;;;;;;27.33;19.47;;;13.70;99.90;;;;;;5012101;28;20176;-69
2021/09/03 05:40:54;;;;;;;31.23;19.53;;;13.80;99.90;;;;;;5011825;28;20636;-70
2021/09/03 05:43:21;;;;;;;32.70;19.67;;;13.90;99.90;;;;;;5011875;28;20192;-70
2021/09/03 05:45:48;;;;;;;28.77;18.23;;;14.00;99.90;;;;;;5012140;28;20161;-69
2021/09/03 05:48:13;;;;;;;22.57;14.27;;;14.80;99.90;;;;;;5011930;28;20426;-69
2021/09/03 05:50:39;;;;;;;17.70;14.60;;;14.80;99.90;;;;;;5012032;28;20889;-70
2021/09/03 05:53:04;;;;;;;21.73;12.50;;;14.90;99.90;;;;;;5011676;28;20600;-69
2021/09/03 05:55:30;;;;;;;16.70;12.53;;;15.00;99.90;;;;;;5011849;28;20197;-69
2021/09/03 05:57:57;;;;;;;14.20;10.67;;;15.40;99.90;;;;;;5012144;28;20188;-69
2021/09/03 06:00:23;;;;;;;16.47;10.30;;;15.80;99.90;;;;;;5011757;28;20254;-68
2021/09/03 06:02:48;;;;;;;15.07;10.70;;;16.50;99.90;;;;;;5011341;28;20949;-68
2021/09/03 06:05:14;;;;;;;12.47;10.63;;;17.10;99.90;;;;;;5011642;28;20168;-68
2021/09/03 06:07:39;;;;;;;15.40;9.93;;;17.20;99.90;;;;;;5011515;28;20174;-68
2021/09/03 06:10:05;;;;;;;14.80;9.50;;;17.50;99.90;;;;;;5011540;28;20211;-68
2021/09/03 06:12:31;;;;;;;13.40;10.00;;;17.80;99.90;;;;;;5011468;28;20198;-68
2021/09/03 06:14:56;;;;;;;11.93;10.80;;;18.30;99.90;;;;;;5011489;28;20932;-68
2021/09/03 06:17:22;;;;;;;13.20;10.20;;;17.50;99.90;;;;;;4993702;28;20173;-68
2021/09/03 06:19:47;;;;;;;11.83;10.23;;;17.80;99.90;;;;;;5011322;28;20168;-68
2021/09/03 06:22:13;;;;;;;11.93;9.20;;;18.50;99.90;;;;;;5015456;28;20556;-68
2021/09/03 06:24:38;;;;;;;16.70;12.73;;;18.90;99.90;;;;;;5015579;28;20196;-68
2021/09/03 06:27:09;;;;;;;13.43;11.47;;;18.00;99.90;;;;;;5015104;28;20191;-68
2021/09/03 06:29:39;;;;;;;17.17;11.30;;;18.40;99.90;;;;;;5015209;28;20544;-68
2021/09/03 06:32:05;;;;;;;12.20;10.90;;;19.50;99.90;;;;;;5015263;28;20410;-68
2021/09/03 06:34:30;;;;;;;13.53;12.23;;;19.40;99.90;;;;;;5014899;28;20435;-68
2021/09/03 06:36:56;;;;;;;12.40;9.77;;;18.90;99.90;;;;;;5015237;28;21034;-69
2021/09/03 06:39:21;;;;;;;13.10;11.80;;;19.40;99.90;;;;;;5015034;28;20176;-68
2021/09/03 06:41:47;;;;;;;12.87;11.47;;;19.90;99.90;;;;;;5014801;28;20212;-68
2021/09/03 06:44:12;;;;;;;16.10;11.03;;;19.20;99.90;;;;;;5015047;28;20186;-69
2021/09/03 06:46:38;;;;;;;11.43;9.33;;;17.90;99.90;;;;;;5014974;28;20178;-70
2021/09/03 06:49:03;;;;;;;12.57;10.77;;;18.70;99.90;;;;;;5014904;28;20187;-70
2021/09/03 06:51:29;;;;;;;11.97;10.70;;;20.20;99.90;;;;;;5014930;28;20205;-69
2021/09/03 06:53:54;;;;;;;10.43;9.37;;;20.50;99.90;;;;;;5015109;28;20231;-69
2021/09/03 06:56:19;;;;;;;16.10;10.20;;;21.30;99.90;;;;;;5014690;28;20178;-69
2021/09/03 06:58:45;;;;;;;12.20;10.90;;;20.90;99.90;;;;;;5014675;28;20169;-69
2021/09/03 07:01:10;;;;;;;13.30;9.27;;;21.10;99.90;;;;;;5014767;28;20663;-69
2021/09/03 07:03:36;;;;;;;11.20;9.30;;;21.20;99.90;;;;;;5015129;28;20604;-70
2021/09/03 07:06:01;;;;;;;10.30;8.90;;;22.10;99.90;;;;;;5014905;28;20178;-70
2021/09/03 07:08:27;;;;;;;13.13;9.37;;;22.50;99.90;;;;;;5014496;28;20202;-70
2021/09/03 07:10:52;;;;;;;9.27;8.27;;;22.20;99.90;;;;;;5014524;28;20183;-70
2021/09/03 07:13:17;;;;;;;11.13;9.00;;;22.20;99.90;;;;;;5014545;28;20698;-69
2021/09/03 07:15:44;;;;;;;9.47;8.57;;;22.20;99.90;;;;;;5014482;28;20222;-69
2021/09/03 07:18:09;;;;;;;13.83;9.87;;;21.60;99.90;;;;;;5014140;28;20168;-69
2021/09/03 07:20:35;;;;;;;11.43;9.20;;;21.90;99.90;;;;;;5014519;28;20898;-69
2021/09/03 07:23:01;;;;;;;10.37;9.27;;;21.20;99.90;;;;;;5014181;28;20191;-69
2021/09/03 07:25:27;;;;;;;11.13;9.93;;;21.60;99.90;;;;;;5014212;28;20157;-69
2021/09/03 07:27:53;;;;;;;11.50;10.00;;;21.80;99.90;;;;;;5013915;28;20776;-69
2021/09/03 07:30:18;;;;;;;9.60;8.43;;;21.20;99.90;;;;;;5014065;28;20407;-69
2021/09/03 07:32:44;;;;;;;10.57;8.23;;;21.90;99.90;;;;;;5012406;28;20211;-69
2021/09/03 07:35:11;;;;;;;9.53;8.57;;;23.10;99.90;;;;;;5014045;28;20174;-69
2021/09/03 07:37:39;;;;;;;11.07;7.93;;;21.90;99.90;;;;;;5013950;28;20824;-69
2021/09/03 07:40:05;;;;;;;14.33;9.10;;;22.80;99.90;;;;;;5014009;28;20534;-69
2021/09/03 07:42:31;;;;;;;12.37;9.53;;;23.20;99.90;;;;;;5013949;28;20474;-70
2021/09/03 07:44:56;;;;;;;11.33;8.17;;;21.70;99.90;;;;;;5013934;28;20407;-69
2021/09/03 07:47:22;;;;;;;10.37;8.37;;;22.70;99.90;;;;;;5013622;28;20192;-69
2021/09/03 07:49:47;;;;;;;11.93;9.03;;;22.10;99.90;;;;;;5013946;28;20179;-69
2021/09/03 07:52:12;;;;;;;15.83;9.47;;;21.00;99.90;;;;;;5013662;28;20695;-70
2021/09/03 07:54:38;;;;;;;12.93;9.40;;;22.40;99.90;;;;;;5013399;28;20191;-68
2021/09/03 07:57:03;;;;;;;8.97;8.03;;;23.30;99.90;;;;;;5013601;28;20278;-68
2021/09/03 07:59:29;;;;;;;9.90;7.13;;;23.20;99.90;;;;;;5013524;28;20164;-68
2021/09/03 08:01:54;;;;;;;10.00;7.40;;;22.00;99.90;;;;;;5023350;28;20334;-68
2021/09/03 08:04:20;;;;;;;8.87;7.97;;;23.20;99.90;;;;;;5019142;28;20192;-69
2021/09/03 08:06:45;;;;;;;10.03;9.07;;;21.40;99.90;;;;;;5015559;28;20172;-69
2021/09/03 08:09:11;;;;;;;10.97;8.63;;;20.90;99.90;;;;;;5016614;28;20175;-69
2021/09/03 08:11:36;;;;;;;13.33;8.60;;;19.90;99.90;;;;;;5013772;28;20200;-69
2021/09/03 08:14:02;;;;;;;10.40;9.33;;;20.70;99.90;;;;;;5013286;28;20195;-69
2021/09/03 08:16:28;;;;;;;11.50;9.80;;;21.20;99.90;;;;;;5013679;28;20199;-69
2021/09/03 08:18:53;;;;;;;9.67;6.60;;;21.30;99.90;;;;;;5016413;28;20179;-70
2021/09/03 08:21:20;;;;;;;10.00;8.87;;;21.90;99.90;;;;;;5013387;28;20507;-70
2021/09/03 08:23:45;;;;;;;14.47;8.50;;;21.30;99.90;;;;;;5013140;28;20191;-70
2021/09/03 08:26:11;;;;;;;7.80;7.00;;;22.40;99.90;;;;;;5013123;28;20408;-70
2021/09/03 08:28:36;;;;;;;9.90;8.90;;;21.80;99.90;;;;;;5013031;28;20174;-69
2021/09/03 08:31:02;;;;;;;10.67;7.90;;;22.60;99.90;;;;;;5012655;28;20179;-70
2021/09/03 08:33:27;;;;;;;12.63;8.60;;;22.90;99.90;;;;;;5017966;28;20251;-69
2021/09/03 08:35:52;;;;;;;13.20;11.10;;;22.70;99.90;;;;;;5032700;28;20175;-74
2021/09/03 08:38:18;;;;;;;12.30;9.20;;;24.30;99.90;;;;;;5015035;28;20175;-69
2021/09/03 08:40:44;;;;;;;10.53;9.17;;;23.00;99.90;;;;;;5032098;28;20203;-69
2021/09/03 08:43:10;;;;;;;10.83;9.50;;;23.10;99.90;;;;;;5029763;28;20191;-68
2021/09/03 08:45:36;;;;;;;10.63;8.43;;;22.10;99.90;;;;;;5030848;28;20186;-68
2021/09/03 08:48:02;;;;;;;10.10;8.23;;;21.70;99.90;;;;;;5032634;28;20408;-72
2021/09/03 08:50:27;;;;;;;10.50;9.40;;;23.10;99.90;;;;;;5032507;28;20406;-71
2021/09/03 08:52:53;;;;;;;11.30;10.07;;;21.60;99.90;;;;;;5032520;28;20187;-78
2021/09/03 08:55:19;;;;;;;10.87;8.17;;;21.00;99.90;;;;;;5032146;28;20592;-70
2021/09/03 08:57:44;;;;;;;11.50;10.37;;;21.90;99.90;;;;;;5032093;28;20684;-71
2021/09/03 09:00:12;;;;;;;9.67;8.60;;;23.00;99.90;;;;;;5032301;28;20230;-70
2021/09/03 09:02:57;;;;;;;11.10;9.03;;;22.00;99.90;;;;;;5048873;28;20741;-70
2021/09/03 09:05:43;;;;;;;12.07;8.67;;;21.90;99.90;;;;;;5052342;28;20401;-70
2021/09/03 09:08:09;;;;;;;10.57;8.73;;;22.30;99.90;;;;;;5034291;28;20417;-70
2021/09/03 09:10:34;;;;;;;13.43;9.50;;;21.90;99.90;;;;;;5031970;28;20418;-70
2021/09/03 09:12:59;;;;;;;9.27;7.87;;;22.40;99.90;;;;;;5031962;28;20199;-70
2021/09/03 09:15:25;;;;;;;13.20;8.60;;;22.20;99.90;;;;;;5032048;28;20164;-70
2021/09/03 09:17:51;;;;;;;11.07;9.83;;;21.40;99.90;;;;;;5031954;28;20233;-70
2021/09/03 09:20:17;;;;;;;14.10;11.40;;;22.00;99.90;;;;;;5031957;28;20222;-70
2021/09/03 09:22:52;;;;;;;26.87;23.97;;;22.40;99.90;;;;;;5031923;28;20219;-70
2021/09/03 09:25:24;;;;;;;13.20;9.37;;;23.00;99.90;;;;;;5031958;28;20409;-70
2021/09/03 09:27:50;;;;;;;9.30;7.53;;;23.60;99.90;;;;;;5032005;28;20535;-71
2021/09/03 09:30:27;;;;;;;32.43;29.03;;;23.30;99.90;;;;;;5031960;28;20461;-71
2021/09/03 09:33:14;;;;;;;11.60;8.20;;;22.50;99.90;;;;;;5031898;28;20432;-71
2021/09/03 09:35:49;;;;;;;10.70;9.03;;;22.60;99.90;;;;;;5031493;28;20909;-70
2021/09/03 09:38:16;;;;;;;13.43;11.83;;;21.70;99.90;;;;;;5031459;28;20448;-70
2021/09/03 09:40:47;;;;;;;8.87;7.97;;;23.00;99.90;;;;;;5031697;28;20496;-70
2021/09/03 09:43:40;;;;;;;14.33;8.47;;;23.00;99.90;;;;;;5031578;28;20432;-70
2021/09/03 09:46:23;;;;;;;11.93;10.00;;;23.30;99.90;;;;;;5031568;28;20414;-71
2021/09/03 09:48:48;;;;;;;16.50;13.80;;;23.90;99.90;;;;;;5031404;28;20402;-70
2021/09/03 09:51:21;;;;;;;10.73;9.37;;;23.90;99.90;;;;;;5031467;28;20794;-77
2021/09/03 09:54:08;;;;;;;39.17;33.63;;;23.50;99.90;;;;;;5031229;28;20194;-73
2021/09/03 09:56:36;;;;;;;10.90;9.67;;;23.60;99.90;;;;;;5030527;28;20909;-74
2021/09/03 09:59:04;;;;;;;10.17;9.10;;;22.80;99.90;;;;;;5031159;28;20487;-69
2021/09/03 10:01:33;;;;;;;11.13;7.93;;;22.20;99.90;;;;;;5031234;28;20464;-68
2021/09/03 10:04:02;;;;;;;10.03;9.13;;;21.60;99.90;;;;;;5031585;28;20881;-74
2021/09/03 10:06:30;;;;;;;9.90;8.87;;;21.80;99.90;;;;;;5031383;28;20490;-72
2021/09/03 10:08:57;;;;;;;11.70;9.50;;;22.10;99.90;;;;;;5031624;28;20448;-72
2021/09/03 10:11:23;;;;;;;11.90;8.90;;;21.70;99.90;;;;;;5031378;28;20414;-70
2021/09/03 10:13:49;;;;;;;10.40;8.17;;;21.50;99.90;;;;;;5031273;28;20809;-71
2021/09/03 10:16:15;;;;;;;9.87;8.87;;;21.30;99.90;;;;;;5031405;28;20717;-69
2021/09/03 10:18:43;;;;;;;9.27;8.20;;;21.00;99.90;;;;;;5031143;28;20922;-68
2021/09/03 10:21:09;;;;;;;12.80;8.83;;;21.10;99.90;;;;;;5031026;28;20477;-68
2021/09/03 10:24:02;;;;;;;16.07;8.30;;;21.40;99.90;;;;;;5031048;28;20854;-68
2021/09/03 10:26:35;;;;;;;10.40;7.60;;;21.40;99.90;;;;;;5031162;28;20770;-68
2021/09/03 10:29:30;;;;;;;10.60;8.07;;;20.80;99.90;;;;;;5031214;28;20503;-68
2021/09/03 10:32:08;;;;;;;12.53;8.97;;;21.00;99.90;;;;;;5031324;28;20555;-68
2021/09/03 10:34:40;;;;;;;9.40;7.83;;;21.60;99.90;;;;;;5031366;28;20417;-68
2021/09/03 10:37:19;;;;;;;14.73;9.40;;;21.80;99.90;;;;;;5031027;28;20410;-68
2021/09/03 10:39:49;;;;;;;9.07;7.70;;;21.90;99.90;;;;;;5031215;28;20406;-68
2021/09/03 10:42:45;;;;;;;11.60;7.77;;;21.80;99.90;;;;;;5030991;28;20433;-68
2021/09/03 10:45:37;;;;;;;9.50;7.57;;;21.80;99.90;;;;;;5030499;28;20808;-68
2021/09/03 10:48:07;;;;;;;10.30;9.23;;;21.70;99.90;;;;;;5031088;28;20422;-68
2021/09/03 10:50:53;;;;;;;9.27;8.27;;;21.90;99.90;;;;;;5030880;28;20726;-67
2021/09/03 10:53:26;;;;;;;9.67;7.83;;;21.70;99.90;;;;;;5031047;28;20514;-68
2021/09/03 10:56:00;;;;;;;10.00;7.67;;;22.00;99.90;;;;;;5031057;28;20437;-68
2021/09/03 10:58:49;;;;;;;9.50;7.93;;;21.80;99.90;;;;;;5030869;28;20417;-68
2021/09/03 11:01:17;;;;;;;10.70;8.33;;;22.00;99.90;;;;;;5031074;28;20895;-68
2021/09/03 11:03:50;;;;;;;10.93;7.30;;;21.60;99.90;;;;;;5030683;28;20448;-68
2021/09/03 11:06:24;;;;;;;9.67;8.67;;;21.80;99.90;;;;;;5031637;28;20460;-68
2021/09/03 11:08:52;;;;;;;11.40;8.40;;;22.30;99.90;;;;;;5034301;28;20505;-68
2021/09/03 11:11:21;;;;;;;8.60;7.63;;;21.80;99.90;;;;;;5034273;28;20928;-68
2021/09/03 11:13:49;;;;;;;9.97;7.57;;;21.80;99.90;;;;;;5034398;28;20502;-68
2021/09/03 11:16:48;;;;;;;12.07;9.20;;;22.00;99.90;;;;;;5034412;28;20894;-68
2021/09/03 11:19:22;;;;;;;9.57;8.67;;;22.00;99.90;;;;;;5034109;28;20413;-68
2021/09/03 11:21:52;;;;;;;10.43;7.80;;;22.30;99.90;;;;;;5033976;28;20475;-68
2021/09/03 11:24:20;;;;;;;11.00;8.50;;;22.10;99.90;;;;;;5048261;28;20856;-68
2021/09/03 11:26:48;;;;;;;9.33;7.60;;;22.20;99.90;;;;;;5033954;28;20412;-72
2021/09/03 11:29:21;;;;;;;9.37;8.30;;;22.30;99.90;;;;;;5034113;28;20412;-75
2021/09/03 11:31:58;;;;;;;11.43;7.87;;;22.20;99.90;;;;;;5034043;28;20503;-70
2021/09/03 11:34:51;;;;;;;13.67;10.70;;;22.60;99.90;;;;;;5033594;28;20434;-68
2021/09/03 11:37:21;;;;;;;8.13;7.33;;;22.50;99.90;;;;;;5036179;28;20775;-68
2021/09/03 11:39:47;;;;;;;9.60;7.10;;;22.20;99.90;;;;;;5052077;28;20491;-68
2021/09/03 11:42:42;;;;;;;9.67;8.33;;;22.10;99.90;;;;;;5053463;28;20517;-68
2021/09/03 11:45:14;;;;;;;11.37;9.90;;;22.20;99.90;;;;;;5052125;28;20190;-75
2021/09/03 11:47:53;;;;;;;11.07;8.90;;;22.20;99.90;;;;;;5053378;28;20414;-69
2021/09/03 11:50:27;;;;;;;8.00;6.90;;;22.40;99.90;;;;;;5053511;28;20439;-68
2021/09/03 11:52:53;;;;;;;9.37;7.57;;;22.20;99.90;;;;;;5051881;28;20426;-68
2021/09/03 11:55:19;;;;;;;16.70;7.90;;;21.80;99.90;;;;;;5053326;28;20506;-68
2021/09/03 11:58:05;;;;;;;9.53;6.70;;;22.10;99.90;;;;;;5053312;28;20499;-68
2021/09/03 12:00:40;;;;;;;8.00;7.20;;;22.40;99.90;;;;;;5053607;28;20806;-68
2021/09/03 12:03:10;;;;;;;7.27;6.63;;;22.40;99.90;;;;;;5053216;28;20422;-68
2021/09/03 12:05:37;;;;;;;10.40;7.03;;;22.70;99.90;;;;;;5053128;28;20404;-68
2021/09/03 12:08:13;;;;;;;8.70;6.60;;;22.90;99.90;;;;;;5053208;28;20498;-68
2021/09/03 12:10:40;;;;;;;9.93;7.13;;;22.70;99.90;;;;;;5053177;28;20931;-69
2021/09/03 12:13:06;;;;;;;6.77;6.07;;;22.50;99.90;;;;;;5052884;28;20450;-69
2021/09/03 12:15:32;;;;;;;7.07;5.87;;;22.70;99.90;;;;;;5049360;28;20489;-69
2021/09/03 12:17:57;;;;;;;8.20;6.80;;;22.90;99.90;;;;;;5010993;28;20409;-69
2021/09/03 12:20:23;;;;;;;6.33;5.63;;;22.80;99.90;;;;;;5012875;28;20685;-69
2021/09/03 12:22:54;;;;;;;8.73;6.63;;;22.80;99.90;;;;;;5012845;28;20189;-69
2021/09/03 12:25:30;;;;;;;8.57;6.40;;;22.80;99.90;;;;;;5013192;28;20293;-68
2021/09/03 12:28:07;;;;;;;8.10;6.60;;;22.80;99.90;;;;;;5012892;28;20408;-68
2021/09/03 12:30:33;;;;;;;6.67;6.07;;;22.80;99.90;;;;;;5012900;28;20412;-69
2021/09/03 12:33:23;;;;;;;8.90;7.60;;;23.10;99.90;;;;;;5011860;28;20439;-68
2021/09/03 12:35:50;;;;;;;8.50;6.70;;;23.20;99.90;;;;;;5012845;28;20179;-69